Latest Weather Observations for Oakey

IDQ60801

Issued at 4:02 pm EST Sunday 26 April 2015 (issued every 30 minutes, with the page automatically refreshed every 10 minutes)

About weather observations | Map of weather stations | Latest weather observations for QLD | Other Formats
Station Details ID: 041359 Name: OAKEY AERO Lat: -27.40 Lon: 151.74 Height: 405.69 m
Data from the previous 72 hours. | See also: Recent months at Oakey
Date/Time
EST
Temp
°C
App
Temp
°C
Dew
Point
Rel
Hum
%
Delta-T
°C
Wind Press
QNH
hPa
Press
MSL
hPa
Rain
since 9 am
mm
Dir
 
Spd
km/h
Gust
km/h
Spd
kts
Gust
kts
26/04:00pm 17.4 9.4 4.0 41 6.4 WSW 35 50 19 27 1014.9 - 0.0
26/03:30pm 17.4 8.6 3.7 40 6.5 WSW 39 48 21 26 1014.8 - 0.0
26/03:00pm 17.7 8.9 3.6 39 6.7 WSW 39 48 21 26 1014.4 1013.1 0.0
26/02:30pm 18.1 8.8 2.8 36 7.2 WSW 41 52 22 28 1014.2 - 0.0
26/02:23pm 18.1 9.2 2.8 36 7.2 SW 39 48 21 26 1014.2 - 0.0
26/02:18pm 18.1 8.1 2.0 34 7.5 W 44 54 24 29 1014.1 - 0.0
26/02:00pm 18.1 8.3 2.0 34 7.5 SW 43 57 23 31 1014.1 - 0.0
26/01:48pm 18.5 9.4 1.9 33 7.7 WSW 39 57 21 31 1014.1 - 0.0
26/01:30pm 18.3 9.3 2.6 35 7.4 WSW 39 46 21 25 1014.1 - 0.0
26/01:26pm 18.2 9.3 2.9 36 7.2 WSW 39 57 21 31 1014.2 - 0.0
26/01:00pm 18.2 9.4 3.7 38 7.0 WSW 39 52 21 28 1014.2 - 0.0
26/12:30pm 18.6 9.8 3.6 37 7.2 WSW 39 52 21 28 1014.5 - 0.0
26/12:15pm 17.7 8.7 2.5 36 7.1 WSW 39 57 21 31 1014.6 - 0.0
26/12:00pm 17.5 7.8 3.0 38 6.8 WSW 43 54 23 29 1014.7 1013.4 0.0
26/11:30am 18.0 9.1 3.1 37 7.0 WSW 39 50 21 27 1014.8 - 0.0
26/11:00am 17.0 8.0 2.6 38 6.7 WSW 39 56 21 30 1015.1 - 0.0
26/10:30am 16.7 7.0 2.7 39 6.5 WSW 43 54 23 29 1015.2 - 0.0
26/10:00am 16.6 7.6 2.6 39 6.5 W 39 46 21 25 1015.4 - 0.0
26/09:30am 15.6 7.5 3.1 43 5.8 WSW 35 44 19 24 1015.7 - 0.0
26/09:00am 14.8 6.8 3.6 47 5.2 W 35 46 19 25 1015.8 1014.4 0.0
26/08:30am 14.1 7.4 3.6 49 4.9 W 28 37 15 20 1015.9 - 0.0
26/08:00am 13.0 6.1 2.8 50 4.6 W 28 37 15 20 1015.7 - 0.0
26/07:30am 12.3 7.2 3.0 53 4.2 W 19 26 10 14 1015.3 - 0.0
26/07:00am 11.0 6.2 2.8 57 3.6 W 17 22 9 12 1014.8 - 0.0
26/06:30am 7.7 3.7 2.6 70 2.2 W 13 17 7 9 1014.7 - 0.0
26/06:00am 8.8 3.9 2.2 63 2.8 WNW 17 19 9 10 1014.3 1013.0 0.0
26/05:30am 9.3 5.3 2.6 63 2.9 WNW 13 17 7 9 1013.9 - 0.0
26/05:00am 8.8 4.6 1.9 62 2.9 NW 13 15 7 8 1013.7 - 0.0
26/04:30am 9.7 6.0 2.1 59 3.3 NW 11 15 6 8 1013.5 - 0.0
26/04:00am 10.0 5.5 2.4 59 3.3 WNW 15 20 8 11 1013.4 - 0.0
26/03:30am 10.5 5.7 2.8 59 3.4 NW 17 19 9 10 1013.2 - 0.0
26/03:00am 10.0 5.7 3.1 62 3.1 NW 15 19 8 10 1012.9 1011.6 0.0
26/02:30am 10.2 6.7 3.5 63 3.0 NW 11 13 6 7 1012.5 - 0.0
26/02:00am 10.7 8.0 3.7 62 3.2 NW 7 9 4 5 1012.4 - 0.0
26/01:30am 11.4 7.6 3.7 59 3.5 NW 13 15 7 8 1012.4 - 0.0
26/01:00am 12.2 8.7 3.7 56 3.9 NW 11 13 6 7 1012.3 - 0.0
26/12:30am 11.5 8.9 4.0 60 3.4 NW 7 9 4 5 1012.2 - 0.0
26/12:00am 12.6 9.5 3.8 55 4.0 W 9 11 5 6 1012.2 1010.9 0.0
 
Date/Time
EST
Temp
°C
App
Temp
°C
Dew
Point
Rel
Hum
%
Delta-T
°C
Wind Press
QNH
hPa
Press
MSL
hPa
Rain
since 9 am
mm
Dir
 
Spd
km/h
Gust
km/h
Spd
kts
Gust
kts
25/11:30pm 13.7 10.4 4.6 54 4.3 NW 11 15 6 8 1012.3 - 0.0
25/11:00pm 12.8 9.4 4.0 55 4.1 N 11 13 6 7 1012.3 - 0.0
25/10:30pm 14.0 11.0 4.3 52 4.6 N 9 13 5 7 1012.4 - 0.0
25/10:00pm 13.0 10.5 4.9 58 3.8 N 7 9 4 5 1012.4 - 0.0
25/09:30pm 13.8 12.6 4.4 53 4.4 CALM 0 0 0 0 1012.3 - 0.0
25/09:00pm 15.3 12.9 4.1 47 5.3 W 6 6 3 3 1012.2 1010.9 0.0
25/08:30pm 16.1 12.7 4.2 45 5.7 WNW 11 13 6 7 1011.9 - 0.0
25/08:00pm 16.5 13.1 4.2 44 5.9 WNW 11 13 6 7 1011.6 - 0.0
25/07:30pm 18.2 14.9 4.4 40 6.7 WNW 11 13 6 7 1011.3 - 0.0
25/07:00pm 18.5 14.8 4.3 39 6.9 WNW 13 15 7 8 1011.1 - 0.0
25/06:30pm 19.5 15.7 4.0 36 7.5 W 13 17 7 9 1010.6 - 0.0
25/06:00pm 21.7 17.6 4.3 32 8.7 W 15 20 8 11 1010.1 1008.8 0.0
25/05:30pm 23.3 18.4 4.3 29 9.5 W 19 24 10 13 1009.8 - 0.0
25/05:00pm 25.2 20.1 4.3 26 10.6 W 20 28 11 15 1009.7 - 0.0
25/04:30pm 25.9 20.0 3.8 24 11.2 WNW 24 35 13 19 1009.4 - 0.0
25/04:00pm 26.5 19.5 4.3 24 11.4 WNW 30 39 16 21 1009.2 - 0.0
25/03:30pm 27.2 20.6 4.3 23 11.8 WNW 28 41 15 22 1009.2 - 0.0
25/03:00pm 27.4 21.7 5.1 24 11.7 WNW 24 32 13 17 1009.1 1007.7 0.0
25/02:30pm 27.5 21.5 5.1 24 11.7 WNW 26 39 14 21 1009.2 - 0.0
25/02:00pm 27.3 20.7 4.4 23 11.8 NW 28 37 15 20 1009.4 - 0.0
25/01:30pm 26.6 21.9 5.0 25 11.2 W 19 28 10 15 1009.6 - 0.0
25/01:00pm 26.9 21.3 5.2 25 11.3 NW 24 32 13 17 1010.0 - 0.0
25/12:30pm 26.3 21.9 4.7 25 11.1 WNW 17 30 9 16 1010.5 - 0.0
25/12:00pm 25.9 21.5 4.9 26 10.9 WNW 17 32 9 17 1010.9 1009.5 0.0
25/11:30am 25.3 20.9 5.0 27 10.5 W 17 26 9 14 1011.5 - 0.0
25/11:00am 24.4 21.1 6.2 31 9.5 W 13 20 7 11 1012.0 - 0.0
25/10:30am 23.7 20.8 6.5 33 9.0 W 11 17 6 9 1012.3 - 0.0
25/10:00am 22.6 20.5 6.8 36 8.3 WNW 7 13 4 7 1012.4 - 0.0
25/09:30am 21.2 19.8 8.8 45 6.7 W 6 7 3 4 1012.9 - 0.0
25/09:00am 18.0 17.5 10.6 62 4.1 S 4 9 2 5 1013.3 1011.9 0.0
25/08:30am 15.6 14.6 10.2 70 2.9 SE 6 9 3 5 1013.2 - 0.0
25/08:00am 13.6 12.4 9.5 76 2.1 SSE 6 7 3 4 1013.2 - 0.0
25/07:30am 11.8 10.7 8.6 81 1.6 NE 4 6 2 3 1012.9 - 0.0
25/07:00am 9.8 9.5 8.7 93 0.6 CALM 0 0 0 0 1012.4 - 0.0
25/06:30am 7.4 5.3 6.7 95 0.3 NNE 7 7 4 4 1012.1 - 0.0
25/06:00am 7.0 4.9 5.9 93 0.5 SE 6 7 3 4 1012.0 1010.7 0.0
25/05:30am 7.6 5.7 6.5 93 0.5 ESE 6 9 3 5 1011.8 - 0.0
25/05:00am 7.0 4.7 5.6 91 0.6 ENE 7 7 4 4 1011.6 - 0.0
25/04:30am 7.7 5.6 6.5 92 0.6 ESE 7 9 4 5 1011.4 - 0.0
25/04:00am 8.1 6.2 6.7 91 0.7 SE 6 7 3 4 1011.3 - 0.0
25/03:30am 9.2 8.7 8.0 92 0.6 CALM 0 0 0 0 1011.4 - 0.0
25/03:00am 9.1 8.1 7.2 88 0.9 NNE 2 6 1 3 1011.4 1010.0 0.0
25/02:30am 9.7 8.6 8.3 91 0.7 NE 4 7 2 4 1011.4 - 0.0
25/02:00am 9.4 7.7 7.7 89 0.8 NE 6 9 3 5 1011.5 - 0.0
25/01:30am 9.3 7.1 7.7 90 0.8 ENE 9 13 5 7 1011.8 - 0.0
25/01:00am 9.7 7.5 8.0 89 0.8 ESE 9 9 5 5 1011.9 - 0.0
25/12:30am 9.6 7.3 7.4 86 1.1 NNE 9 11 5 6 1012.0 - 0.0
25/12:00am 10.8 9.3 8.6 86 1.1 NE 6 7 3 4 1012.1 1010.8 0.0
 
Date/Time
EST
Temp
°C
App
Temp
°C
Dew
Point
Rel
Hum
%
Delta-T
°C
Wind Press
QNH
hPa
Press
MSL
hPa
Rain
since 9 am
mm
Dir
 
Spd
km/h
Gust
km/h
Spd
kts
Gust
kts
24/11:30pm 10.6 9.0 7.8 83 1.4 NNE 6 7 3 4 1012.1 - 0.0
24/11:00pm 11.2 9.5 7.7 79 1.7 NE 6 7 3 4 1012.0 - 0.0
24/10:30pm 11.4 9.6 7.9 79 1.7 NE 7 9 4 5 1012.0 - 0.0
24/10:00pm 12.8 12.6 9.1 78 1.9 CALM 0 0 0 0 1012.0 - 0.0
24/09:30pm 12.9 11.3 8.8 76 2.1 N 7 9 4 5 1012.0 - 0.0
24/09:00pm 13.2 11.6 8.7 74 2.3 NE 7 9 4 5 1011.8 1010.5 0.0
24/08:30pm 14.5 12.9 8.9 69 2.9 NE 7 9 4 5 1011.7 - 0.0
24/08:00pm 14.9 14.6 8.6 66 3.3 CALM 0 0 0 0 1011.4 - 0.0
24/07:30pm 16.9 16.0 9.1 60 4.1 W 4 7 2 4 1011.2 - 0.0
24/07:00pm 17.8 16.2 8.9 56 4.7 WNW 7 9 4 5 1010.8 - 0.0
24/06:30pm 18.8 16.9 9.0 53 5.2 WSW 9 11 5 6 1010.5 - 0.0
24/06:00pm 19.8 17.8 8.8 49 5.9 WSW 9 13 5 7 1010.2 1008.9 0.0
24/05:30pm 21.6 18.8 8.5 43 7.0 WSW 13 15 7 8 1010.0 - 0.0
24/05:00pm 24.0 20.0 8.4 37 8.5 W 19 20 10 11 1009.6 - 0.0
24/04:30pm 24.7 20.5 8.2 35 9.0 WSW 20 26 11 14 1009.4 - 0.0
24/04:00pm 25.3 21.3 8.3 34 9.3 W 19 24 10 13 1009.2 - 0.0
24/03:30pm 24.2 19.6 8.2 36 8.7 WSW 22 30 12 16 1009.2 - 0.0
24/03:00pm 25.6 20.7 8.6 34 9.4 WSW 24 32 13 17 1009.3 1007.9 0.0
24/02:30pm 25.8 21.7 8.8 34 9.4 SW 20 28 11 15 1009.4 - 0.0
24/02:00pm 24.2 19.7 8.6 37 8.5 W 22 24 12 13 1009.6 - 0.0
24/01:30pm 24.3 20.1 8.3 36 8.7 W 20 30 11 16 1009.7 - 0.0
24/01:00pm 24.2 20.4 9.0 38 8.4 WSW 19 24 10 13 1010.0 - 0.0
24/12:30pm 24.3 20.3 8.3 36 8.7 W 19 33 10 18 1010.6 - 0.0
24/12:00pm 24.4 21.2 9.9 40 8.1 W 17 24 9 13 1011.1 1009.7 0.0
24/11:30am 23.7 20.5 10.0 42 7.6 WNW 17 24 9 13 1011.6 - 0.0
24/11:00am 22.6 20.2 10.1 45 6.9 W 13 17 7 9 1012.1 - 0.0
24/10:30am 22.8 19.8 10.6 46 6.8 WNW 17 24 9 13 1012.5 - 0.0
24/10:00am 21.4 19.0 11.4 53 5.7 W 15 19 8 10 1012.9 - 0.0
24/09:30am 20.1 18.4 11.1 56 5.0 WNW 11 17 6 9 1013.1 - 0.0
24/09:00am 18.1 17.9 11.9 67 3.5 W 4 7 2 4 1013.1 1011.7 0.0
24/08:30am 16.3 17.1 12.7 79 2.0 CALM 0 6 0 3 1012.9 - 0.0
24/08:00am 14.0 14.6 12.0 88 1.1 CALM 0 0 0 0 1012.9 - 0.0
24/07:30am 13.1 13.6 11.7 91 0.8 CALM 0 4 0 2 1012.8 - 0.0
24/07:00am 12.2 11.4 11.6 96 0.3 ENE 7 9 4 5 1012.5 - 0.0
24/06:30am 11.2 10.2 10.3 94 0.5 NE 6 7 3 4 1012.3 - 0.0
24/06:00am 11.0 9.9 9.8 92 0.6 ENE 6 7 3 4 1011.7 1010.4 0.0
24/05:30am 11.4 11.5 10.1 92 0.7 CALM 0 0 0 0 1011.6 - 0.0
24/05:00am 11.7 11.5 10.4 92 0.7 SE 2 6 1 3 1011.5 - 0.0
24/04:30am 11.9 11.7 10.6 92 0.7 SSE 2 6 1 3 1011.3 - 0.0
24/04:00am 11.6 10.9 10.2 91 0.7 NNE 4 7 2 4 1011.3 - 0.0
24/03:30am 11.7 10.5 10.3 91 0.7 NE 7 9 4 5 1011.5 - 0.0
24/03:00am 11.8 10.5 10.0 89 0.9 NE 7 7 4 4 1011.5 1010.1 0.0
24/02:30am 12.5 11.6 10.7 89 1.0 SE 6 7 3 4 1011.8 - 0.0
24/02:00am 12.4 11.2 10.3 87 1.1 E 7 7 4 4 1011.8 - 0.0
24/01:30am 12.7 12.9 10.6 87 1.1 CALM 0 0 0 0 1011.9 - 0.0
24/01:00am 12.8 12.3 10.7 87 1.1 SE 4 6 2 3 1012.0 - 0.0
24/12:30am 13.0 12.2 10.9 87 1.1 NE 6 6 3 3 1012.3 - 0.0
24/12:00am 12.8 12.3 10.7 87 1.1 NE 4 7 2 4 1012.6 1011.3 0.0
 
Date/Time
EST
Temp
°C
App
Temp
°C
Dew
Point
Rel
Hum
%
Delta-T
°C
Wind Press
QNH
hPa
Press
MSL
hPa
Rain
since 9 am
mm
Dir
 
Spd
km/h
Gust
km/h
Spd
kts
Gust
kts
23/11:30pm 12.8 11.8 10.3 85 1.3 NNE 6 7 3 4 1012.7 - 0.0
23/11:00pm 12.7 11.6 10.6 87 1.1 NNE 7 9 4 5 1012.7 - 0.0
23/10:30pm 12.8 11.6 10.3 85 1.3 NE 7 9 4 5 1012.7 - 0.0
23/10:00pm 12.7 11.4 10.1 84 1.4 NE 7 9 4 5 1013.1 - 0.0
23/09:30pm 12.8 11.7 9.8 82 1.6 NNE 6 9 3 5 1012.9 - 0.0
23/09:00pm 13.1 11.9 9.4 78 1.9 NE 6 9 3 5 1012.8 1011.5 0.0
23/08:30pm 15.6 13.7 10.6 72 2.7 SW 11 13 6 7 1012.7 - 0.0
23/08:00pm 15.7 13.3 10.2 70 2.9 WSW 13 17 7 9 1012.5 - 0.0
23/07:30pm 15.8 13.3 9.7 67 3.2 W 13 15 7 8 1012.4 - 0.0
23/07:00pm 17.8 15.6 10.7 63 3.9 WSW 13 15 7 8 1012.0 - 0.0
23/06:30pm 18.0 15.6 9.9 59 4.4 WSW 13 15 7 8 1011.6 - 0.0
23/06:00pm 18.9 16.1 9.9 56 4.9 WSW 15 17 8 9 1011.5 1010.1 0.0
23/05:30pm 20.0 17.7 9.0 49 5.9 WSW 11 15 6 8 1011.0 - 0.0
23/05:00pm 22.0 18.6 9.2 44 7.0 SW 17 20 9 11 1010.6 - 0.0
23/04:30pm 23.1 19.8 9.5 42 7.5 W 17 22 9 12 1010.2 - 0.0

Other Formats:

Comma delimited format used in spreadsheet applications
http://www.bom.gov.au/fwo/IDQ60801/IDQ60801.94552.axf

JavaScript Object Notation format (JSON) in row-major order
http://www.bom.gov.au/fwo/IDQ60801/IDQ60801.94552.json